Adamsville, Utah
Current Conditions -  °F | °C
As of 12:52 PM on Saturday 25 Oct 2014 (Local Time) from KMLF Reporting Station
Clear Clear  
Wind Chill: 74°   Ceiling: Unl
Heat Index: 74°   Visibility: 10mi
Dew Point: 38°   Wind: 24mph
Humidity: 27%   Direction: 220°SW
Pressure: 30.13"   Gusts: 30mph
Location:  38.2672°N, 112.728°W
Report Text: KMLF 251852Z AUTO 22021G26KT 10SM CLR 23/03 A3013 RMK AO2 PK WND 20032/1813 SLP151 T02330033 TSNO
Loading
Personal Weather Stations






























Interactive Weather Map New forecast layout! Learn more

10-Day Weather Forecast

Advertisements
Track Severe Weather on mobile